sensor_id;sensor_type;location;lat;lon;timestamp;pressure;altitude;pressure_sealevel;temperature;humidity
74633;BME280;63139;52.018;8.552;2023-05-27T00:01:11;101875.19;;;7.53;84.74
74633;BME280;63139;52.018;8.552;2023-05-27T00:03:39;101870.75;;;7.53;85.32
74633;BME280;63139;52.018;8.552;2023-05-27T00:06:07;101875.28;;;7.51;85.56
74633;BME280;63139;52.018;8.552;2023-05-27T00:08:37;101873.00;;;7.47;85.48
74633;BME280;63139;52.018;8.552;2023-05-27T00:11:04;101868.91;;;7.43;85.08
74633;BME280;63139;52.018;8.552;2023-05-27T00:13:32;101869.97;;;7.40;85.41
74633;BME280;63139;52.018;8.552;2023-05-27T00:16:01;101868.41;;;7.37;85.63
74633;BME280;63139;52.018;8.552;2023-05-27T00:18:29;101864.09;;;7.36;85.87
74633;BME280;63139;52.018;8.552;2023-05-27T00:20:59;101867.66;;;7.35;86.47
74633;BME280;63139;52.018;8.552;2023-05-27T00:23:27;101868.50;;;7.36;86.47
74633;BME280;63139;52.018;8.552;2023-05-27T00:25:56;101866.13;;;7.33;86.14
74633;BME280;63139;52.018;8.552;2023-05-27T00:28:24;101867.06;;;7.32;86.47
74633;BME280;63139;52.018;8.552;2023-05-27T00:30:55;101867.06;;;7.32;86.58
74633;BME280;63139;52.018;8.552;2023-05-27T00:33:24;101871.72;;;7.28;86.36
74633;BME280;63139;52.018;8.552;2023-05-27T00:35:52;101867.38;;;7.27;86.82
74633;BME280;63139;52.018;8.552;2023-05-27T00:38:20;101868.47;;;7.25;86.36
74633;BME280;63139;52.018;8.552;2023-05-27T00:40:49;101874.78;;;7.22;86.36
74633;BME280;63139;52.018;8.552;2023-05-27T00:43:18;101877.53;;;7.21;87.44
74633;BME280;63139;52.018;8.552;2023-05-27T00:45:47;101870.47;;;7.21;87.42
74633;BME280;63139;52.018;8.552;2023-05-27T00:48:15;101869.88;;;7.18;87.18
74633;BME280;63139;52.018;8.552;2023-05-27T00:50:42;101863.13;;;7.14;86.75
74633;BME280;63139;52.018;8.552;2023-05-27T00:53:10;101864.22;;;7.11;87.38
74633;BME280;63139;52.018;8.552;2023-05-27T00:55:38;101865.28;;;7.09;87.32
74633;BME280;63139;52.018;8.552;2023-05-27T00:58:07;101856.88;;;7.04;87.28
74633;BME280;63139;52.018;8.552;2023-05-27T01:00:37;101860.56;;;7.01;87.75
74633;BME280;63139;52.018;8.552;2023-05-27T01:03:06;101856.25;;;7.00;87.93
74633;BME280;63139;52.018;8.552;2023-05-27T01:05:34;101860.06;;;6.96;88.16
74633;BME280;63139;52.018;8.552;2023-05-27T01:08:19;101859.22;;;6.95;88.21
74633;BME280;63139;52.018;8.552;2023-05-27T01:10:50;101863.75;;;6.93;88.67
74633;BME280;63139;52.018;8.552;2023-05-27T01:13:24;101869.22;;;6.90;88.31
74633;BME280;63139;52.018;8.552;2023-05-27T01:15:59;101855.44;;;6.87;88.66
74633;BME280;63139;52.018;8.552;2023-05-27T01:18:28;101852.19;;;6.83;88.52
74633;BME280;63139;52.018;8.552;2023-05-27T01:21:01;101854.22;;;6.80;88.64
74633;BME280;63139;52.018;8.552;2023-05-27T01:23:31;101852.72;;;6.76;88.77
74633;BME280;63139;52.018;8.552;2023-05-27T01:25:59;101853.91;;;6.72;88.36
74633;BME280;63139;52.018;8.552;2023-05-27T01:28:28;101854.22;;;6.67;88.77
74633;BME280;63139;52.018;8.552;2023-05-27T01:31:01;101849.19;;;6.64;88.58
74633;BME280;63139;52.018;8.552;2023-05-27T01:33:35;101852.97;;;6.60;88.34
74633;BME280;63139;52.018;8.552;2023-05-27T01:36:10;101846.25;;;6.56;88.62
74633;BME280;63139;52.018;8.552;2023-05-27T01:38:42;101836.19;;;6.50;88.86
74633;BME280;63139;52.018;8.552;2023-05-27T01:41:11;101839.84;;;6.47;88.78
74633;BME280;63139;52.018;8.552;2023-05-27T01:43:40;101845.34;;;6.44;89.00
74633;BME280;63139;52.018;8.552;2023-05-27T01:46:08;101842.19;;;6.39;88.85
74633;BME280;63139;52.018;8.552;2023-05-27T01:48:36;101845.88;;;6.37;88.94
74633;BME280;63139;52.018;8.552;2023-05-27T01:51:04;101848.91;;;6.31;89.09
74633;BME280;63139;52.018;8.552;2023-05-27T01:53:33;101844.72;;;6.28;89.40
74633;BME280;63139;52.018;8.552;2023-05-27T01:56:05;101843.97;;;6.26;90.10
74633;BME280;63139;52.018;8.552;2023-05-27T01:58:32;101841.69;;;6.21;89.87
74633;BME280;63139;52.018;8.552;2023-05-27T02:01:00;101837.56;;;6.17;89.74
74633;BME280;63139;52.018;8.552;2023-05-27T02:03:28;101839.44;;;6.15;90.01
74633;BME280;63139;52.018;8.552;2023-05-27T02:05:56;101841.28;;;6.15;90.25
74633;BME280;63139;52.018;8.552;2023-05-27T02:08:25;101829.16;;;6.12;90.30
74633;BME280;63139;52.018;8.552;2023-05-27T02:10:53;101833.69;;;6.10;90.30
74633;BME280;63139;52.018;8.552;2023-05-27T02:13:23;101833.69;;;6.10;90.92
74633;BME280;63139;52.018;8.552;2023-05-27T02:15:51;101827.47;;;6.11;91.20
74633;BME280;63139;52.018;8.552;2023-05-27T02:18:20;101824.22;;;6.08;91.05
74633;BME280;63139;52.018;8.552;2023-05-27T02:20:48;101830.44;;;6.07;91.29
74633;BME280;63139;52.018;8.552;2023-05-27T02:23:18;101829.69;;;6.05;90.93
74633;BME280;63139;52.018;8.552;2023-05-27T02:25:46;101822.94;;;6.01;90.97
74633;BME280;63139;52.018;8.552;2023-05-27T02:28:15;101824.88;;;5.99;90.95
74633;BME280;63139;52.018;8.552;2023-05-27T02:30:45;101821.59;;;5.95;90.40
74633;BME280;63139;52.018;8.552;2023-05-27T02:33:13;101828.88;;;5.92;90.92
74633;BME280;63139;52.018;8.552;2023-05-27T02:35:42;101829.13;;;5.87;90.73
74633;BME280;63139;52.018;8.552;2023-05-27T02:38:11;101825.78;;;5.85;90.73
74633;BME280;63139;52.018;8.552;2023-05-27T02:40:41;101828.59;;;5.82;90.56
74633;BME280;63139;52.018;8.552;2023-05-27T02:43:08;101822.69;;;5.78;90.81
74633;BME280;63139;52.018;8.552;2023-05-27T02:45:37;101824.81;;;5.73;91.13
74633;BME280;63139;52.018;8.552;2023-05-27T02:48:07;101818.94;;;5.70;90.89
74633;BME280;63139;52.018;8.552;2023-05-27T02:50:37;101816.41;;;5.68;91.13
74633;BME280;63139;52.018;8.552;2023-05-27T02:53:05;101813.88;;;5.67;91.14
74633;BME280;63139;52.018;8.552;2023-05-27T02:55:33;101815.75;;;5.65;91.51
74633;BME280;63139;52.018;8.552;2023-05-27T02:58:01;101810.72;;;5.62;91.58
74633;BME280;63139;52.018;8.552;2023-05-27T03:00:32;101812.50;;;5.61;91.63
74633;BME280;63139;52.018;8.552;2023-05-27T03:03:00;101812.50;;;5.61;91.62
74633;BME280;63139;52.018;8.552;2023-05-27T03:05:32;101805.56;;;5.60;91.79
74633;BME280;63139;52.018;8.552;2023-05-27T03:08:00;101812.59;;;5.60;91.88
74633;BME280;63139;52.018;8.552;2023-05-27T03:10:27;101816.16;;;5.59;92.19
74633;BME280;63139;52.018;8.552;2023-05-27T03:12:57;101824.81;;;5.61;92.17
74633;BME280;63139;52.018;8.552;2023-05-27T03:15:25;101821.94;;;5.64;93.38
74633;BME280;63139;52.018;8.552;2023-05-27T03:17:56;101827.66;;;5.70;94.00
74633;BME280;63139;52.018;8.552;2023-05-27T03:20:24;101828.09;;;5.77;94.29
74633;BME280;63139;52.018;8.552;2023-05-27T03:22:53;101822.59;;;5.80;94.04
74633;BME280;63139;52.018;8.552;2023-05-27T03:25:22;101821.25;;;5.87;94.33
74633;BME280;63139;52.018;8.552;2023-05-27T03:27:50;101821.91;;;5.91;94.02
74633;BME280;63139;52.018;8.552;2023-05-27T03:30:19;101823.28;;;5.96;93.99
74633;BME280;63139;52.018;8.552;2023-05-27T03:32:50;101814.22;;;6.00;93.70
74633;BME280;63139;52.018;8.552;2023-05-27T03:35:25;101821.59;;;6.08;93.77
74633;BME280;63139;52.018;8.552;2023-05-27T03:37:54;101819.50;;;6.13;93.52
74633;BME280;63139;52.018;8.552;2023-05-27T03:40:22;101814.75;;;6.18;93.67
74633;BME280;63139;52.018;8.552;2023-05-27T03:42:50;101810.00;;;6.23;93.49
74633;BME280;63139;52.018;8.552;2023-05-27T03:45:21;101805.19;;;6.30;93.28
74633;BME280;63139;52.018;8.552;2023-05-27T03:47:50;101797.81;;;6.35;92.92
74633;BME280;63139;52.018;8.552;2023-05-27T03:50:19;101799.88;;;6.42;92.67
74633;BME280;63139;52.018;8.552;2023-05-27T03:52:47;101797.75;;;6.47;91.96
74633;BME280;63139;52.018;8.552;2023-05-27T03:55:16;101803.53;;;6.52;92.01
74633;BME280;63139;52.018;8.552;2023-05-27T03:57:47;101795.22;;;6.58;91.65
74633;BME280;63139;52.018;8.552;2023-05-27T04:00:15;101792.16;;;6.65;91.12
74633;BME280;63139;52.018;8.552;2023-05-27T04:02:51;101794.34;;;6.71;91.07
74633;BME280;63139;52.018;8.552;2023-05-27T04:05:19;101793.78;;;6.78;90.95
74633;BME280;63139;52.018;8.552;2023-05-27T04:07:47;101793.22;;;6.86;90.85
74633;BME280;63139;52.018;8.552;2023-05-27T04:10:18;101797.81;;;6.95;90.67
74633;BME280;63139;52.018;8.552;2023-05-27T04:12:46;101800.75;;;7.03;90.30
74633;BME280;63139;52.018;8.552;2023-05-27T04:15:14;101795.75;;;7.11;89.81
74633;BME280;63139;52.018;8.552;2023-05-27T04:17:42;101788.84;;;7.21;89.50
74633;BME280;63139;52.018;8.552;2023-05-27T04:20:11;101798.47;;;7.33;89.10
74633;BME280;63139;52.018;8.552;2023-05-27T04:22:44;101789.84;;;7.43;88.68
74633;BME280;63139;52.018;8.552;2023-05-27T04:25:12;101789.78;;;7.55;88.21
74633;BME280;63139;52.018;8.552;2023-05-27T04:28:00;101795.91;;;7.67;87.92
74633;BME280;63139;52.018;8.552;2023-05-27T04:30:32;101793.53;;;7.86;87.40
74633;BME280;63139;52.018;8.552;2023-05-27T04:33:00;101786.72;;;7.95;86.78
74633;BME280;63139;52.018;8.552;2023-05-27T04:35:28;101789.13;;;7.98;86.86
74633;BME280;63139;52.018;8.552;2023-05-27T04:37:57;101791.19;;;8.05;86.86
74633;BME280;63139;52.018;8.552;2023-05-27T04:40:35;101786.03;;;8.15;86.46
74633;BME280;63139;52.018;8.552;2023-05-27T04:43:24;101793.09;;;8.26;86.06
74633;BME280;63139;52.018;8.552;2023-05-27T04:45:53;101795.88;;;8.35;85.70
74633;BME280;63139;52.018;8.552;2023-05-27T04:48:22;101791.69;;;8.44;85.05
74633;BME280;63139;52.018;8.552;2023-05-27T04:50:50;101792.72;;;8.52;84.64
74633;BME280;63139;52.018;8.552;2023-05-27T04:53:20;101791.16;;;8.61;84.41
74633;BME280;63139;52.018;8.552;2023-05-27T04:55:48;101794.03;;;8.69;84.28
74633;BME280;63139;52.018;8.552;2023-05-27T04:58:17;101795.94;;;8.78;84.23
74633;BME280;63139;52.018;8.552;2023-05-27T05:00:49;101789.53;;;8.92;83.99
74633;BME280;63139;52.018;8.552;2023-05-27T05:03:20;101783.50;;;9.01;83.38
74633;BME280;63139;52.018;8.552;2023-05-27T05:05:49;101785.25;;;9.12;83.13
74633;BME280;63139;52.018;8.552;2023-05-27T05:08:19;101783.59;;;9.31;82.76
74633;BME280;63139;52.018;8.552;2023-05-27T05:10:50;101782.56;;;9.44;82.20
74633;BME280;63139;52.018;8.552;2023-05-27T05:13:19;101785.72;;;9.79;81.44
74633;BME280;63139;52.018;8.552;2023-05-27T05:15:46;101782.06;;;10.22;80.18
74633;BME280;63139;52.018;8.552;2023-05-27T05:18:16;101786.22;;;10.55;79.41
74633;BME280;63139;52.018;8.552;2023-05-27T05:20:44;101774.56;;;10.86;79.00
74633;BME280;63139;52.018;8.552;2023-05-27T05:23:14;101786.72;;;11.17;78.36
74633;BME280;63139;52.018;8.552;2023-05-27T05:25:43;101782.91;;;11.49;77.21
74633;BME280;63139;52.018;8.552;2023-05-27T05:28:11;101785.09;;;11.73;75.94
74633;BME280;63139;52.018;8.552;2023-05-27T05:30:39;101786.19;;;11.99;75.64
74633;BME280;63139;52.018;8.552;2023-05-27T05:33:09;101781.34;;;12.22;74.76
74633;BME280;63139;52.018;8.552;2023-05-27T05:35:38;101785.44;;;12.43;74.23
74633;BME280;63139;52.018;8.552;2023-05-27T05:38:18;101783.50;;;12.63;73.31
74633;BME280;63139;52.018;8.552;2023-05-27T05:40:48;101782.16;;;12.77;72.64
74633;BME280;63139;52.018;8.552;2023-05-27T05:43:19;101788.84;;;12.81;71.28
74633;BME280;63139;52.018;8.552;2023-05-27T05:45:48;101787.56;;;12.85;70.75
74633;BME280;63139;52.018;8.552;2023-05-27T05:48:18;101782.88;;;12.97;70.48
74633;BME280;63139;52.018;8.552;2023-05-27T05:50:47;101786.88;;;13.01;70.09
74633;BME280;63139;52.018;8.552;2023-05-27T05:53:16;101779.00;;;13.09;70.27
74633;BME280;63139;52.018;8.552;2023-05-27T05:55:44;101787.66;;;13.11;69.88
74633;BME280;63139;52.018;8.552;2023-05-27T05:58:13;101786.94;;;13.18;70.04
74633;BME280;63139;52.018;8.552;2023-05-27T06:00:41;101790.88;;;13.14;69.15
74633;BME280;63139;52.018;8.552;2023-05-27T06:03:27;101795.63;;;13.11;69.06
74633;BME280;63139;52.018;8.552;2023-05-27T06:05:59;101795.19;;;13.15;69.23
74633;BME280;63139;52.018;8.552;2023-05-27T06:08:31;101795.25;;;13.06;69.13
74633;BME280;63139;52.018;8.552;2023-05-27T06:11:07;101804.06;;;13.06;69.22
74633;BME280;63139;52.018;8.552;2023-05-27T06:13:35;101812.03;;;13.06;69.37
74633;BME280;63139;52.018;8.552;2023-05-27T06:16:06;101801.31;;;12.98;69.40
74633;BME280;63139;52.018;8.552;2023-05-27T06:18:34;101805.66;;;12.99;69.56
74633;BME280;63139;52.018;8.552;2023-05-27T06:21:04;101798.66;;;12.98;69.59
74633;BME280;63139;52.018;8.552;2023-05-27T06:23:50;101798.66;;;12.98;69.42
74633;BME280;63139;52.018;8.552;2023-05-27T06:26:19;101800.56;;;12.88;69.34
74633;BME280;63139;52.018;8.552;2023-05-27T06:28:50;101799.88;;;12.86;69.61
74633;BME280;63139;52.018;8.552;2023-05-27T06:31:18;101799.56;;;12.89;69.92
74633;BME280;63139;52.018;8.552;2023-05-27T06:33:46;101800.31;;;12.81;69.63
74633;BME280;63139;52.018;8.552;2023-05-27T06:36:15;101801.00;;;12.83;69.92
74633;BME280;63139;52.018;8.552;2023-05-27T06:38:43;101805.78;;;12.80;69.76
74633;BME280;63139;52.018;8.552;2023-05-27T06:41:11;101808.59;;;12.78;69.98
74633;BME280;63139;52.018;8.552;2023-05-27T06:43:46;101799.09;;;12.76;69.98
74633;BME280;63139;52.018;8.552;2023-05-27T06:46:24;101799.50;;;12.81;70.36
74633;BME280;63139;52.018;8.552;2023-05-27T06:49:15;101792.19;;;12.83;70.08
74633;BME280;63139;52.018;8.552;2023-05-27T06:51:45;101787.84;;;12.82;70.12
74633;BME280;63139;52.018;8.552;2023-05-27T06:54:13;101783.13;;;12.76;70.63
74633;BME280;63139;52.018;8.552;2023-05-27T06:56:43;101778.06;;;12.82;70.20
74633;BME280;63139;52.018;8.552;2023-05-27T06:59:40;101772.44;;;12.86;70.74
74633;BME280;63139;52.018;8.552;2023-05-27T07:02:08;101765.53;;;12.93;71.03
74633;BME280;63139;52.018;8.552;2023-05-27T07:04:36;101770.09;;;13.00;71.27
74633;BME280;63139;52.018;8.552;2023-05-27T07:07:08;101765.00;;;13.07;70.88
74633;BME280;63139;52.018;8.552;2023-05-27T07:09:36;101756.03;;;13.08;70.38
74633;BME280;63139;52.018;8.552;2023-05-27T07:12:06;101762.59;;;13.13;70.10
74633;BME280;63139;52.018;8.552;2023-05-27T07:14:50;101765.66;;;13.18;69.93
74633;BME280;63139;52.018;8.552;2023-05-27T07:17:20;101756.00;;;13.17;69.88
74633;BME280;63139;52.018;8.552;2023-05-27T07:19:48;101760.69;;;13.24;69.87
74633;BME280;63139;52.018;8.552;2023-05-27T07:22:20;101757.91;;;13.25;69.74
74633;BME280;63139;52.018;8.552;2023-05-27T07:24:48;101755.31;;;13.33;69.99
74633;BME280;63139;52.018;8.552;2023-05-27T07:27:16;101747.69;;;13.38;69.93
74633;BME280;63139;52.018;8.552;2023-05-27T07:29:52;101742.22;;;13.40;69.81
74633;BME280;63139;52.018;8.552;2023-05-27T07:32:32;101748.59;;;13.47;69.69
74633;BME280;63139;52.018;8.552;2023-05-27T07:35:00;101741.66;;;13.54;69.93
74633;BME280;63139;52.018;8.552;2023-05-27T07:37:29;101744.66;;;13.59;69.57
74633;BME280;63139;52.018;8.552;2023-05-27T07:39:57;101753.00;;;13.64;69.00
74633;BME280;63139;52.018;8.552;2023-05-27T07:42:24;101746.75;;;13.73;68.57
74633;BME280;63139;52.018;8.552;2023-05-27T07:44:53;101736.16;;;13.81;68.35
74633;BME280;63139;52.018;8.552;2023-05-27T07:47:21;101733.34;;;13.83;67.76
74633;BME280;63139;52.018;8.552;2023-05-27T07:49:50;101739.53;;;13.91;68.22
74633;BME280;63139;52.018;8.552;2023-05-27T07:52:39;101728.59;;;14.03;68.03
74633;BME280;63139;52.018;8.552;2023-05-27T07:55:20;101725.13;;;14.10;67.39
74633;BME280;63139;52.018;8.552;2023-05-27T07:57:48;101730.84;;;14.15;67.69
74633;BME280;63139;52.018;8.552;2023-05-27T08:00:16;101727.34;;;14.23;66.82
74633;BME280;63139;52.018;8.552;2023-05-27T08:02:52;101724.91;;;14.29;65.54
74633;BME280;63139;52.018;8.552;2023-05-27T08:05:36;101720.75;;;14.35;66.98
74633;BME280;63139;52.018;8.552;2023-05-27T08:08:20;101721.78;;;14.42;66.86
74633;BME280;63139;52.018;8.552;2023-05-27T08:11:03;101715.81;;;14.48;66.69
74633;BME280;63139;52.018;8.552;2023-05-27T08:13:59;101715.16;;;14.54;66.88
74633;BME280;63139;52.018;8.552;2023-05-27T08:16:32;101713.66;;;14.60;65.82
74633;BME280;63139;52.018;8.552;2023-05-27T08:19:18;101708.00;;;14.63;64.64
74633;BME280;63139;52.018;8.552;2023-05-27T08:21:51;101702.84;;;14.69;65.41
74633;BME280;63139;52.018;8.552;2023-05-27T08:24:41;101698.03;;;14.73;64.37
74633;BME280;63139;52.018;8.552;2023-05-27T08:27:42;101680.38;;;14.80;62.52
74633;BME280;63139;52.018;8.552;2023-05-27T08:30:16;101685.19;;;14.85;63.36
74633;BME280;63139;52.018;8.552;2023-05-27T08:32:59;101686.03;;;14.93;63.38
74633;BME280;63139;52.018;8.552;2023-05-27T08:35:28;101685.19;;;14.93;63.11
74633;BME280;63139;52.018;8.552;2023-05-27T08:37:56;101682.22;;;14.96;62.48
74633;BME280;63139;52.018;8.552;2023-05-27T08:40:30;101669.88;;;14.95;61.16
74633;BME280;63139;52.018;8.552;2023-05-27T08:42:58;101673.69;;;15.00;61.67
74633;BME280;63139;52.018;8.552;2023-05-27T08:45:27;101670.34;;;15.06;61.52
74633;BME280;63139;52.018;8.552;2023-05-27T08:47:56;101668.84;;;15.12;61.58
74633;BME280;63139;52.018;8.552;2023-05-27T08:50:32;101666.84;;;15.14;61.18
74633;BME280;63139;52.018;8.552;2023-05-27T08:53:01;101662.34;;;15.23;61.18
74633;BME280;63139;52.018;8.552;2023-05-27T08:55:32;101666.31;;;15.27;59.64
74633;BME280;63139;52.018;8.552;2023-05-27T08:58:01;101664.50;;;15.27;59.75
74633;BME280;63139;52.018;8.552;2023-05-27T09:00:33;101648.47;;;15.35;60.13
74633;BME280;63139;52.018;8.552;2023-05-27T09:03:13;101652.31;;;15.41;59.71
74633;BME280;63139;52.018;8.552;2023-05-27T09:05:41;101651.47;;;15.40;59.39
74633;BME280;63139;52.018;8.552;2023-05-27T09:08:09;101644.63;;;15.46;59.02
74633;BME280;63139;52.018;8.552;2023-05-27T09:10:38;101642.09;;;15.52;59.46
74633;BME280;63139;52.018;8.552;2023-05-27T09:13:07;101645.09;;;15.58;59.20
74633;BME280;63139;52.018;8.552;2023-05-27T09:15:35;101647.06;;;15.64;59.29
74633;BME280;63139;52.018;8.552;2023-05-27T09:18:04;101631.25;;;15.62;58.64
74633;BME280;63139;52.018;8.552;2023-05-27T09:20:32;101631.41;;;15.69;58.90
74633;BME280;63139;52.018;8.552;2023-05-27T09:23:02;101636.50;;;15.78;58.63
74633;BME280;63139;52.018;8.552;2023-05-27T09:25:30;101636.66;;;15.85;57.43
74633;BME280;63139;52.018;8.552;2023-05-27T09:27:59;101626.44;;;15.88;56.34
74633;BME280;63139;52.018;8.552;2023-05-27T09:30:27;101639.31;;;15.93;57.04
74633;BME280;63139;52.018;8.552;2023-05-27T09:33:00;101633.72;;;16.03;56.87
74633;BME280;63139;52.018;8.552;2023-05-27T09:35:29;101624.53;;;16.05;56.87
74633;BME280;63139;52.018;8.552;2023-05-27T09:38:05;101632.84;;;16.10;56.89
74633;BME280;63139;52.018;8.552;2023-05-27T09:40:35;101619.97;;;16.14;56.62
74633;BME280;63139;52.018;8.552;2023-05-27T09:43:12;101618.44;;;16.19;57.03
74633;BME280;63139;52.018;8.552;2023-05-27T09:45:52;101614.88;;;16.27;54.68
74633;BME280;63139;52.018;8.552;2023-05-27T09:48:23;101620.00;;;16.37;55.85
74633;BME280;63139;52.018;8.552;2023-05-27T09:50:52;101620.97;;;16.44;56.29
74633;BME280;63139;52.018;8.552;2023-05-27T09:53:20;101614.22;;;16.48;56.11
74633;BME280;63139;52.018;8.552;2023-05-27T09:55:49;101608.00;;;16.55;55.97
74633;BME280;63139;52.018;8.552;2023-05-27T09:58:19;101614.31;;;16.62;56.18
74633;BME280;63139;52.018;8.552;2023-05-27T10:00:48;101603.72;;;16.69;55.57
74633;BME280;63139;52.018;8.552;2023-05-27T10:03:20;101606.34;;;16.77;54.88
74633;BME280;63139;52.018;8.552;2023-05-27T10:05:49;101602.31;;;16.81;53.80
74633;BME280;63139;52.018;8.552;2023-05-27T10:08:18;101610.44;;;16.88;53.68
74633;BME280;63139;52.018;8.552;2023-05-27T10:10:49;101593.81;;;16.92;53.46
74633;BME280;63139;52.018;8.552;2023-05-27T10:13:19;101591.91;;;17.01;53.80
74633;BME280;63139;52.018;8.552;2023-05-27T10:15:50;101586.66;;;17.07;53.92
74633;BME280;63139;52.018;8.552;2023-05-27T10:18:22;101592.28;;;17.13;53.82
74633;BME280;63139;52.018;8.552;2023-05-27T10:20:51;101593.59;;;17.17;53.44
74633;BME280;63139;52.018;8.552;2023-05-27T10:23:25;101579.63;;;17.21;52.71
74633;BME280;63139;52.018;8.552;2023-05-27T10:25:57;101569.41;;;17.25;53.05
74633;BME280;63139;52.018;8.552;2023-05-27T10:28:30;101580.03;;;17.33;54.16
74633;BME280;63139;52.018;8.552;2023-05-27T10:31:06;101579.81;;;17.34;51.24
74633;BME280;63139;52.018;8.552;2023-05-27T10:33:37;101579.63;;;17.36;51.80
74633;BME280;63139;52.018;8.552;2023-05-27T10:36:09;101572.91;;;17.40;51.19
74633;BME280;63139;52.018;8.552;2023-05-27T10:38:40;101575.00;;;17.44;51.28
74633;BME280;63139;52.018;8.552;2023-05-27T10:41:09;101569.31;;;17.48;50.37
74633;BME280;63139;52.018;8.552;2023-05-27T10:43:40;101556.16;;;17.53;51.91
74633;BME280;63139;52.018;8.552;2023-05-27T10:46:09;101556.25;;;17.59;51.92
74633;BME280;63139;52.018;8.552;2023-05-27T10:48:37;101551.41;;;17.63;51.86
74633;BME280;63139;52.018;8.552;2023-05-27T10:51:06;101561.06;;;17.64;51.45
74633;BME280;63139;52.018;8.552;2023-05-27T10:53:36;101551.84;;;17.66;50.43
74633;BME280;63139;52.018;8.552;2023-05-27T10:56:04;101543.25;;;17.71;50.37
74633;BME280;63139;52.018;8.552;2023-05-27T10:58:33;101552.09;;;17.71;51.00
74633;BME280;63139;52.018;8.552;2023-05-27T11:01:09;101545.09;;;17.70;49.62
74633;BME280;63139;52.018;8.552;2023-05-27T11:03:41;101537.25;;;17.69;49.17
74633;BME280;63139;52.018;8.552;2023-05-27T11:06:11;101533.56;;;17.70;51.52
74633;BME280;63139;52.018;8.552;2023-05-27T11:08:39;101526.97;;;17.72;49.73
74633;BME280;63139;52.018;8.552;2023-05-27T11:11:10;101529.66;;;17.72;49.80
74633;BME280;63139;52.018;8.552;2023-05-27T11:13:39;101526.19;;;17.78;49.89
74633;BME280;63139;52.018;8.552;2023-05-27T11:16:14;101530.84;;;17.84;49.21
74633;BME280;63139;52.018;8.552;2023-05-27T11:18:44;101524.63;;;17.84;49.69
74633;BME280;63139;52.018;8.552;2023-05-27T11:21:14;101520.13;;;17.84;50.02
74633;BME280;63139;52.018;8.552;2023-05-27T11:23:44;101518.81;;;17.80;48.99
74633;BME280;63139;52.018;8.552;2023-05-27T11:26:16;101515.31;;;17.80;48.10
74633;BME280;63139;52.018;8.552;2023-05-27T11:28:48;101510.22;;;17.85;49.12
74633;BME280;63139;52.018;8.552;2023-05-27T11:31:18;101516.19;;;17.87;49.27
74633;BME280;63139;52.018;8.552;2023-05-27T11:33:49;101510.28;;;17.92;49.15
74633;BME280;63139;52.018;8.552;2023-05-27T11:36:17;101508.44;;;17.92;48.30
74633;BME280;63139;52.018;8.552;2023-05-27T11:38:51;101509.53;;;17.98;46.73
74633;BME280;63139;52.018;8.552;2023-05-27T11:41:21;101506.06;;;18.04;48.25
74633;BME280;63139;52.018;8.552;2023-05-27T11:43:51;101499.50;;;18.06;47.19
74633;BME280;63139;52.018;8.552;2023-05-27T11:46:21;101496.25;;;18.11;47.31
74633;BME280;63139;52.018;8.552;2023-05-27T11:48:49;101492.34;;;18.13;47.78
74633;BME280;63139;52.018;8.552;2023-05-27T11:51:17;101491.34;;;18.14;46.98
74633;BME280;63139;52.018;8.552;2023-05-27T11:53:45;101492.78;;;18.17;45.71
74633;BME280;63139;52.018;8.552;2023-05-27T11:56:13;101483.16;;;18.22;46.38
74633;BME280;63139;52.018;8.552;2023-05-27T11:58:41;101478.03;;;18.28;46.50
74633;BME280;63139;52.018;8.552;2023-05-27T12:01:09;101483.22;;;18.29;46.18
74633;BME280;63139;52.018;8.552;2023-05-27T12:03:40;101478.03;;;18.28;44.65
74633;BME280;63139;52.018;8.552;2023-05-27T12:06:08;101479.28;;;18.32;44.69
74633;BME280;63139;52.018;8.552;2023-05-27T12:08:37;101464.50;;;18.36;44.60
74633;BME280;63139;52.018;8.552;2023-05-27T12:11:05;101460.56;;;18.38;44.99
74633;BME280;63139;52.018;8.552;2023-05-27T12:13:33;101452.34;;;18.40;45.01
74633;BME280;63139;52.018;8.552;2023-05-27T12:16:01;101454.66;;;18.43;44.82
74633;BME280;63139;52.018;8.552;2023-05-27T12:18:29;101445.81;;;18.49;44.28
74633;BME280;63139;52.018;8.552;2023-05-27T12:20:59;101453.06;;;18.55;42.80
74633;BME280;63139;52.018;8.552;2023-05-27T12:23:26;101442.59;;;18.60;43.86
74633;BME280;63139;52.018;8.552;2023-05-27T12:25:54;101442.03;;;18.65;43.20
74633;BME280;63139;52.018;8.552;2023-05-27T12:28:22;101437.53;;;18.72;43.60
74633;BME280;63139;52.018;8.552;2023-05-27T12:30:50;101437.56;;;18.78;43.19
74633;BME280;63139;52.018;8.552;2023-05-27T12:33:18;101423.16;;;18.86;42.24
74633;BME280;63139;52.018;8.552;2023-05-27T12:35:46;101419.66;;;18.92;42.69
74633;BME280;63139;52.018;8.552;2023-05-27T12:38:15;101423.41;;;18.97;41.96
74633;BME280;63139;52.018;8.552;2023-05-27T12:40:43;101436.25;;;19.02;39.74
74633;BME280;63139;52.018;8.552;2023-05-27T12:43:11;101418.94;;;19.11;40.56
74633;BME280;63139;52.018;8.552;2023-05-27T12:45:38;101428.06;;;19.23;40.66
74633;BME280;63139;52.018;8.552;2023-05-27T12:48:06;101420.88;;;19.37;41.43
74633;BME280;63139;52.018;8.552;2023-05-27T12:50:34;101416.56;;;19.49;41.89
74633;BME280;63139;52.018;8.552;2023-05-27T12:53:02;101402.13;;;19.57;41.70
74633;BME280;63139;52.018;8.552;2023-05-27T12:55:32;101398.41;;;19.64;41.37
74633;BME280;63139;52.018;8.552;2023-05-27T12:57:59;101398.03;;;19.74;41.97
74633;BME280;63139;52.018;8.552;2023-05-27T13:00:27;101395.78;;;19.84;42.03
74633;BME280;63139;52.018;8.552;2023-05-27T13:02:55;101390.38;;;19.91;41.11
74633;BME280;63139;52.018;8.552;2023-05-27T13:05:23;101393.28;;;19.96;40.47
74633;BME280;63139;52.018;8.552;2023-05-27T13:07:55;101382.13;;;20.05;40.83
74633;BME280;63139;52.018;8.552;2023-05-27T13:10:25;101375.91;;;20.11;41.41
74633;BME280;63139;52.018;8.552;2023-05-27T13:12:55;101375.28;;;20.09;40.19